Time;durP1;ratioP1;P1;durP2;ratioP2;P2;SDS_P1;SDS_P2;PMS_P1;PMS_P2;Temp;Humidity;BMP_temperature;BMP_pressure;BME280_temperature;BME280_humidity;BME280_pressure;Samples;Min_cycle;Max_cycle;Signal;HPM_P1;HPM_P2
2021/07/28 00:00:32;;;;;;;9.90;6.23;;;23.50;1.00;;;;;;5127088;27;20445;-56
2021/07/28 00:02:57;;;;;;;8.33;6.50;;;23.40;1.00;;;;;;5137176;27;20501;-56
2021/07/28 00:05:23;;;;;;;6.60;6.00;;;23.40;1.00;;;;;;5127600;27;20466;-57
2021/07/28 00:07:49;;;;;;;7.20;6.50;;;23.40;1.00;;;;;;5126801;27;20198;-56
2021/07/28 00:10:15;;;;;;;6.63;6.00;;;23.50;1.00;;;;;;5126462;27;20445;-56
2021/07/28 00:12:40;;;;;;;6.70;6.10;;;23.40;1.00;;;;;;5129993;27;20177;-56
2021/07/28 00:15:07;;;;;;;7.03;6.33;;;23.30;1.00;;;;;;5132482;27;20246;-57
2021/07/28 00:17:34;;;;;;;6.93;6.33;;;23.20;1.00;;;;;;5131290;27;20186;-56
2021/07/28 00:20:05;;;;;;;8.23;6.27;;;23.30;1.00;;;;;;5129346;27;20483;-57
2021/07/28 00:25:24;;;;;;;7.27;6.67;;;23.20;1.00;;;;;;5133924;27;20434;-57
2021/07/28 00:27:50;;;;;;;7.50;6.80;;;23.20;1.00;;;;;;5130873;27;20431;-56
2021/07/28 00:30:16;;;;;;;7.97;6.17;;;23.20;1.00;;;;;;5130157;27;20984;-56
2021/07/28 00:32:42;;;;;;;10.40;7.40;;;23.10;1.00;;;;;;5130041;27;20205;-56
2021/07/28 00:35:08;;;;;;;6.97;6.37;;;23.20;1.00;;;;;;5132593;27;20514;-56
2021/07/28 00:37:33;;;;;;;8.70;6.60;;;23.20;1.00;;;;;;5127473;27;20174;-57
2021/07/28 00:39:59;;;;;;;7.03;6.17;;;23.30;1.00;;;;;;5125560;27;20464;-57
2021/07/28 00:42:25;;;;;;;7.00;6.30;;;23.20;1.00;;;;;;5113830;27;20184;-56
2021/07/28 00:44:50;;;;;;;8.40;7.03;;;23.20;1.00;;;;;;5130807;27;20617;-56
2021/07/28 00:47:16;;;;;;;7.47;6.67;;;23.20;1.00;;;;;;5127227;27;20183;-57
2021/07/28 00:49:42;;;;;;;8.13;6.70;;;23.10;1.00;;;;;;5114867;27;20192;-56
2021/07/28 00:52:08;;;;;;;8.27;6.87;;;23.10;1.00;;;;;;5129935;27;20221;-58
2021/07/28 00:54:34;;;;;;;6.70;6.10;;;23.10;1.00;;;;;;5129488;27;20182;-56
2021/07/28 00:57:00;;;;;;;6.90;6.30;;;23.10;1.00;;;;;;5129468;27;20458;-57
2021/07/28 00:59:26;;;;;;;6.93;6.23;;;23.00;1.00;;;;;;5131499;27;20277;-57
2021/07/28 01:01:54;;;;;;;9.47;7.00;;;23.00;1.00;;;;;;5105307;27;20462;-56
2021/07/28 01:04:20;;;;;;;7.00;6.40;;;23.00;1.00;;;;;;5132896;27;20454;-56
2021/07/28 01:06:46;;;;;;;22.43;7.93;;;23.00;1.00;;;;;;5129852;27;20441;-57
2021/07/28 01:09:12;;;;;;;7.43;6.73;;;23.00;1.00;;;;;;5131205;27;20449;-56
2021/07/28 01:11:38;;;;;;;7.50;6.30;;;23.00;1.00;;;;;;5131764;27;20928;-55
2021/07/28 01:14:05;;;;;;;7.53;6.83;;;23.00;1.00;;;;;;5131656;27;20192;-59
2021/07/28 01:16:36;;;;;;;7.47;6.87;;;23.00;1.00;;;;;;5131778;27;20178;-56
2021/07/28 01:19:04;;;;;;;7.13;6.53;;;22.90;1.00;;;;;;5122875;27;20531;-56
2021/07/28 01:21:29;;;;;;;8.57;6.90;;;22.80;1.00;;;;;;5128337;27;20426;-57
2021/07/28 01:23:55;;;;;;;8.27;7.47;;;22.90;1.00;;;;;;5126955;27;20450;-56
2021/07/28 01:26:21;;;;;;;7.23;6.63;;;22.80;1.00;;;;;;5128214;27;20297;-57
2021/07/28 01:28:47;;;;;;;7.70;7.00;;;22.80;1.00;;;;;;5133448;27;20189;-56
2021/07/28 01:31:16;;;;;;;7.80;7.00;;;22.80;1.00;;;;;;5126238;27;20526;-57
2021/07/28 01:33:43;;;;;;;7.57;6.77;;;22.70;1.00;;;;;;5133108;27;20453;-57
2021/07/28 01:36:12;;;;;;;7.40;6.70;;;22.70;1.00;;;;;;5131247;27;20442;-55
2021/07/28 01:38:37;;;;;;;7.50;6.80;;;22.80;1.00;;;;;;5131925;27;20500;-56
2021/07/28 01:41:05;;;;;;;8.33;6.90;;;22.80;1.00;;;;;;5111457;27;20936;-55
2021/07/28 01:43:32;;;;;;;7.90;7.00;;;22.80;1.00;;;;;;5128726;27;20205;-55
2021/07/28 01:45:59;;;;;;;7.13;6.43;;;22.80;1.00;;;;;;5131505;27;20473;-57
2021/07/28 01:48:26;;;;;;;7.83;7.10;;;22.70;1.00;;;;;;5109435;27;20467;-55
2021/07/28 01:50:54;;;;;;;8.03;7.33;;;22.70;1.00;;;;;;5128025;27;20429;-58
2021/07/28 01:53:19;;;;;;;8.47;7.30;;;22.60;1.00;;;;;;5127654;27;21040;-55
2021/07/28 01:55:45;;;;;;;7.50;6.90;;;22.50;1.00;;;;;;5126539;27;20442;-56
2021/07/28 01:58:12;;;;;;;8.03;7.20;;;22.50;1.00;;;;;;5131547;27;20242;-58
2021/07/28 02:00:38;;;;;;;9.60;7.53;;;22.40;1.00;;;;;;5128586;27;20208;-56
2021/07/28 02:03:04;;;;;;;8.03;7.10;;;22.30;1.00;;;;;;5132553;27;20554;-58
2021/07/28 02:05:30;;;;;;;10.33;8.17;;;22.20;1.00;;;;;;5126281;27;20543;-57
2021/07/28 02:08:01;;;;;;;8.40;7.70;;;22.20;1.00;;;;;;5127181;27;20182;-58
2021/07/28 02:10:28;;;;;;;7.97;7.00;;;22.20;1.00;;;;;;5131672;27;20514;-55
2021/07/28 02:12:54;;;;;;;7.40;6.70;;;22.10;1.00;;;;;;5130169;27;20455;-56
2021/07/28 02:15:23;;;;;;;8.40;7.50;;;22.20;1.00;;;;;;5131031;27;20495;-56
2021/07/28 02:17:48;;;;;;;8.63;7.93;;;22.20;1.00;;;;;;5131462;27;20197;-55
2021/07/28 02:20:14;;;;;;;7.93;7.13;;;22.10;1.00;;;;;;5127930;27;20820;-57
2021/07/28 02:22:40;;;;;;;9.27;8.03;;;22.10;1.00;;;;;;5131992;27;20658;-58
2021/07/28 02:25:06;;;;;;;8.07;7.27;;;22.10;1.00;;;;;;5127118;27;20431;-56
2021/07/28 02:27:32;;;;;;;8.50;7.33;;;22.10;1.00;;;;;;5122416;27;20212;-55
2021/07/28 02:29:58;;;;;;;8.97;7.70;;;;;;;;;;5131158;27;20193;-56
2021/07/28 02:32:25;;;;;;;8.47;7.47;;;22.10;1.00;;;;;;5128054;27;20226;-56
2021/07/28 02:34:50;;;;;;;8.20;7.50;;;22.00;1.00;;;;;;5130907;27;20478;-56
2021/07/28 02:37:16;;;;;;;8.97;8.17;;;21.90;1.00;;;;;;5124398;27;20471;-56
2021/07/28 02:39:41;;;;;;;8.97;7.63;;;22.00;1.00;;;;;;5112901;27;20554;-56
2021/07/28 02:42:07;;;;;;;8.93;8.07;;;22.00;1.00;;;;;;5131788;27;20192;-55
2021/07/28 02:44:32;;;;;;;8.30;7.60;;;22.00;1.00;;;;;;5126422;27;20208;-57
2021/07/28 02:46:58;;;;;;;8.00;7.30;;;21.90;1.00;;;;;;5130049;27;20626;-57
2021/07/28 02:49:23;;;;;;;8.30;7.60;;;21.90;1.00;;;;;;5130530;27;20192;-56
2021/07/28 02:51:49;;;;;;;9.07;8.20;;;21.90;1.00;;;;;;5135636;27;20219;-56
2021/07/28 02:54:17;;;;;;;8.13;6.73;;;21.90;1.00;;;;;;5125764;27;20181;-55
2021/07/28 02:56:42;;;;;;;7.57;6.80;;;21.90;1.00;;;;;;5127052;27;20265;-56
2021/07/28 02:59:08;;;;;;;9.93;7.40;;;22.10;1.00;;;;;;5131550;27;20443;-55
2021/07/28 03:01:34;;;;;;;8.27;7.57;;;22.10;1.00;;;;;;5128310;27;20273;-56
2021/07/28 03:03:59;;;;;;;7.90;7.10;;;22.20;1.00;;;;;;5129561;27;20555;-57
2021/07/28 03:06:25;;;;;;;8.30;7.60;;;22.40;1.00;;;;;;5126879;27;20188;-57
2021/07/28 03:08:50;;;;;;;8.40;7.70;;;22.60;1.00;;;;;;5131598;27;20193;-56
2021/07/28 03:11:16;;;;;;;7.50;6.90;;;22.10;1.00;;;;;;5127643;27;20173;-56
2021/07/28 03:13:41;;;;;;;7.93;7.10;;;21.90;1.00;;;;;;5129455;27;20200;-56
2021/07/28 03:16:08;;;;;;;8.40;6.83;;;22.00;1.00;;;;;;5131279;27;20184;-57
2021/07/28 03:18:34;;;;;;;8.73;7.70;;;22.00;1.00;;;;;;5126182;27;20201;-57
2021/07/28 03:20:59;;;;;;;8.83;6.73;;;22.10;1.00;;;;;;5108608;27;20800;-55
2021/07/28 03:23:25;;;;;;;8.70;7.23;;;22.20;1.00;;;;;;5130978;27;20217;-55
2021/07/28 03:25:50;;;;;;;8.37;7.50;;;22.10;1.00;;;;;;5126479;27;20183;-56
2021/07/28 03:28:16;;;;;;;9.30;6.80;;;22.00;1.00;;;;;;5125332;27;20182;-57
2021/07/28 03:30:42;;;;;;;8.53;7.73;;;22.00;1.00;;;;;;5126051;27;20305;-58
2021/07/28 03:33:07;;;;;;;8.13;7.33;;;22.00;1.00;;;;;;5125652;27;20181;-56
2021/07/28 03:35:33;;;;;;;8.13;7.40;;;22.00;1.00;;;;;;5127750;27;20208;-56
2021/07/28 03:37:58;;;;;;;11.47;9.27;;;21.70;1.00;;;;;;5131761;27;20186;-56
2021/07/28 03:40:24;;;;;;;8.63;7.73;;;21.70;1.00;;;;;;5129976;27;20185;-57
2021/07/28 03:42:50;;;;;;;15.57;8.30;;;21.70;1.00;;;;;;5127070;27;20273;-57
2021/07/28 03:45:15;;;;;;;8.67;7.83;;;21.70;1.00;;;;;;5129222;27;20186;-56
2021/07/28 03:47:41;;;;;;;10.20;7.77;;;21.80;1.00;;;;;;5133058;27;20328;-57
2021/07/28 03:50:07;;;;;;;9.30;8.40;;;21.80;1.00;;;;;;5129766;27;20662;-56
2021/07/28 03:52:32;;;;;;;9.43;8.40;;;22.00;1.00;;;;;;5129621;27;20212;-56
2021/07/28 03:54:58;;;;;;;11.13;8.80;;;22.10;1.00;;;;;;5133720;27;20491;-56
2021/07/28 03:57:23;;;;;;;8.67;7.83;;;22.10;1.00;;;;;;5134260;27;20234;-56
2021/07/28 03:59:49;;;;;;;10.37;8.70;;;22.10;1.00;;;;;;5134532;27;20258;-56
2021/07/28 04:02:15;;;;;;;9.33;8.43;;;22.00;1.00;;;;;;5131319;27;20250;-56
2021/07/28 04:04:40;;;;;;;10.27;9.27;;;21.90;1.00;;;;;;5134045;27;20197;-56
2021/07/28 04:07:11;;;;;;;10.37;9.23;;;21.90;1.00;;;;;;5131313;27;20992;-55
2021/07/28 04:09:37;;;;;;;9.10;8.30;;;21.80;1.00;;;;;;5132050;27;20204;-56
2021/07/28 04:12:02;;;;;;;9.43;8.47;;;21.80;1.00;;;;;;5115784;27;20474;-56
2021/07/28 04:14:28;;;;;;;10.37;9.17;;;21.80;1.00;;;;;;5133815;27;20735;-57
2021/07/28 04:16:53;;;;;;;9.90;8.73;;;22.00;1.00;;;;;;5132917;27;20264;-57
2021/07/28 04:19:19;;;;;;;9.77;8.80;;;22.10;1.00;;;;;;5132522;27;20224;-55
2021/07/28 04:21:44;;;;;;;8.70;7.80;;;22.10;1.00;;;;;;5129352;27;20190;-56
2021/07/28 04:24:11;;;;;;;11.00;7.90;;;22.30;1.00;;;;;;5133612;27;20223;-56
2021/07/28 04:26:36;;;;;;;9.40;7.90;;;22.30;1.00;;;;;;5130305;27;20334;-56
2021/07/28 04:29:02;;;;;;;8.50;7.73;;;22.30;1.00;;;;;;5133282;27;20625;-55
2021/07/28 04:31:27;;;;;;;8.63;7.73;;;22.40;1.00;;;;;;5133045;27;20212;-55
2021/07/28 04:33:53;;;;;;;8.20;7.50;;;22.50;1.00;;;;;;5132821;27;20200;-55
2021/07/28 04:36:18;;;;;;;9.50;8.60;;;22.60;1.00;;;;;;5130730;27;20608;-56
2021/07/28 04:38:44;;;;;;;8.80;8.00;;;22.80;1.00;;;;;;5133499;27;20642;-57
2021/07/28 04:41:10;;;;;;;9.20;8.30;;;22.80;1.00;;;;;;5132779;27;20634;-57
2021/07/28 04:43:35;;;;;;;8.40;7.50;;;23.00;1.00;;;;;;5131518;27;20209;-56
2021/07/28 04:46:02;;;;;;;8.40;7.63;;;23.10;1.00;;;;;;5125815;27;20210;-57
2021/07/28 04:48:29;;;;;;;8.70;7.50;;;23.10;1.00;;;;;;5127886;27;20313;-56
2021/07/28 04:50:56;;;;;;;8.53;7.73;;;23.10;1.00;;;;;;5129508;27;20440;-56
2021/07/28 04:53:22;;;;;;;10.00;7.93;;;23.20;1.00;;;;;;5108596;27;20560;-58
2021/07/28 04:55:55;;;;;;;7.77;7.10;;;23.30;1.00;;;;;;5110057;28;20588;-56
2021/07/28 04:58:20;;;;;;;9.50;7.70;;;23.40;1.00;;;;;;5109233;28;20797;-57
2021/07/28 05:00:50;;;;;;;8.60;7.80;;;23.50;1.00;;;;;;5111454;28;20435;-56
2021/07/28 05:03:15;;;;;;;9.00;7.70;;;23.60;1.00;;;;;;5107532;28;21426;-56
2021/07/28 05:05:41;;;;;;;8.20;7.40;;;23.60;1.00;;;;;;5110378;28;20459;-56
2021/07/28 05:08:07;;;;;;;8.40;7.20;;;23.50;1.00;;;;;;5110854;28;20174;-56
2021/07/28 05:10:33;;;;;;;7.87;7.17;;;23.60;1.00;;;;;;5109297;28;20189;-57
2021/07/28 05:12:58;;;;;;;8.10;7.20;;;23.50;1.00;;;;;;5109051;28;20457;-57
2021/07/28 05:15:24;;;;;;;7.60;6.90;;;23.60;1.00;;;;;;5108863;28;20263;-57
2021/07/28 05:17:49;;;;;;;8.57;6.87;;;23.60;1.00;;;;;;5112440;28;20210;-54
2021/07/28 05:20:16;;;;;;;8.43;7.60;;;23.50;1.00;;;;;;5110456;28;20268;-58
2021/07/28 05:22:42;;;;;;;8.03;7.30;;;23.50;1.00;;;;;;5108992;28;20205;-55
2021/07/28 05:25:08;;;;;;;7.50;6.80;;;23.40;1.00;;;;;;5111043;28;20466;-56
2021/07/28 05:27:34;;;;;;;7.63;6.93;;;23.40;1.00;;;;;;5110882;28;20235;-57
2021/07/28 05:30:00;;;;;;;8.63;7.90;;;23.50;1.00;;;;;;5110351;28;20282;-56
2021/07/28 05:32:26;;;;;;;8.03;7.23;;;23.50;1.00;;;;;;5109693;27;20178;-56
2021/07/28 05:34:52;;;;;;;8.03;7.20;;;23.70;1.00;;;;;;5111966;28;20440;-57
2021/07/28 05:37:19;;;;;;;7.90;7.20;;;23.80;1.00;;;;;;5110755;28;20444;-57
2021/07/28 05:39:44;;;;;;;7.90;7.07;;;23.80;1.00;;;;;;5109377;28;21044;-56
2021/07/28 05:42:11;;;;;;;7.40;6.80;;;;;;;;;;5109214;28;20530;-56
2021/07/28 05:44:37;;;;;;;8.47;7.40;;;24.00;1.00;;;;;;5120912;27;20200;-57
2021/07/28 05:47:02;;;;;;;7.37;6.77;;;24.20;1.00;;;;;;5114055;27;20437;-57
2021/07/28 05:49:28;;;;;;;8.50;7.33;;;24.30;1.00;;;;;;5110050;27;20485;-57
2021/07/28 05:51:54;;;;;;;7.10;6.50;;;24.30;1.00;;;;;;5106651;28;20207;-57
2021/07/28 05:54:20;;;;;;;8.17;7.37;;;24.40;1.00;;;;;;5111963;28;20677;-58
2021/07/28 05:56:45;;;;;;;8.23;7.43;;;24.40;1.00;;;;;;5110192;28;20186;-57
2021/07/28 05:59:11;;;;;;;7.07;6.47;;;24.50;1.00;;;;;;5108122;28;20318;-56
2021/07/28 06:01:36;;;;;;;7.03;6.43;;;24.50;1.00;;;;;;5107641;28;20202;-57
2021/07/28 06:04:02;;;;;;;8.90;7.90;;;24.50;1.00;;;;;;5110309;28;20209;-56
2021/07/28 06:06:27;;;;;;;7.27;6.20;;;24.60;1.00;;;;;;5110276;28;20274;-56
2021/07/28 06:08:54;;;;;;;8.17;7.47;;;24.70;1.00;;;;;;5109065;28;20201;-55
2021/07/28 06:11:19;;;;;;;11.10;8.40;;;24.60;1.00;;;;;;5107834;27;20396;-56
2021/07/28 06:13:45;;;;;;;8.43;7.67;;;24.60;1.00;;;;;;5104630;28;20439;-54
2021/07/28 06:16:11;;;;;;;11.40;8.47;;;24.60;1.00;;;;;;5107291;28;20181;-55
2021/07/28 06:18:36;;;;;;;8.73;7.60;;;24.70;1.00;;;;;;5111519;28;20182;-56
2021/07/28 06:21:02;;;;;;;8.77;7.87;;;24.80;1.00;;;;;;5103784;28;20231;-58
2021/07/28 06:23:28;;;;;;;7.93;7.23;;;24.90;1.00;;;;;;5110260;28;20254;-56
2021/07/28 06:25:53;;;;;;;10.00;7.93;;;24.80;1.00;;;;;;5106987;28;20204;-57
2021/07/28 06:28:19;;;;;;;8.10;7.33;;;24.90;1.00;;;;;;5110474;28;20588;-56
2021/07/28 06:30:44;;;;;;;11.43;7.70;;;24.80;1.00;;;;;;5110038;28;20178;-56
2021/07/28 06:33:10;;;;;;;9.27;8.10;;;24.90;1.00;;;;;;5110654;28;20231;-55
2021/07/28 06:35:35;;;;;;;9.50;8.10;;;25.00;1.00;;;;;;5107929;28;20174;-56
2021/07/28 06:38:02;;;;;;;8.90;7.40;;;25.00;1.00;;;;;;5117168;27;20193;-54
2021/07/28 06:40:28;;;;;;;10.13;8.13;;;25.10;1.00;;;;;;5110348;28;20623;-55
2021/07/28 06:42:54;;;;;;;8.13;7.33;;;25.20;1.00;;;;;;5108437;28;20516;-55
2021/07/28 06:45:19;;;;;;;10.00;7.47;;;25.30;1.00;;;;;;5110291;28;20995;-56
2021/07/28 06:47:45;;;;;;;7.93;7.10;;;27.60;1.00;;;;;;5104198;28;20252;-56
2021/07/28 06:50:11;;;;;;;8.07;6.97;;;25.30;1.00;;;;;;5108275;28;20182;-54
2021/07/28 06:52:37;;;;;;;8.27;7.57;;;25.20;1.00;;;;;;5121889;27;20249;-55
2021/07/28 06:55:02;;;;;;;8.73;7.83;;;25.10;1.00;;;;;;5130401;27;20610;-55
2021/07/28 06:57:29;;;;;;;8.33;7.60;;;24.90;1.00;;;;;;5130102;27;20646;-57
2021/07/28 06:59:55;;;;;;;8.53;7.70;;;24.80;1.00;;;;;;5111228;27;20181;-55
2021/07/28 07:02:21;;;;;;;8.40;7.60;;;24.70;1.00;;;;;;5130067;27;20880;-55
2021/07/28 07:04:47;;;;;;;8.67;7.83;;;24.70;1.00;;;;;;5130746;27;20493;-56
2021/07/28 07:07:12;;;;;;;7.93;7.13;;;24.70;1.00;;;;;;5130384;27;20234;-56
2021/07/28 07:09:38;;;;;;;9.20;8.27;;;24.60;1.00;;;;;;5130781;27;20730;-56
2021/07/28 07:12:04;;;;;;;8.83;8.13;;;24.50;1.00;;;;;;5129420;27;20188;-56
2021/07/28 07:14:30;;;;;;;8.63;7.77;;;24.50;1.00;;;;;;5131173;27;20192;-56
2021/07/28 07:16:56;;;;;;;8.40;7.50;;;24.40;1.00;;;;;;5127908;27;20665;-56
2021/07/28 07:19:21;;;;;;;8.13;7.37;;;24.30;1.00;;;;;;5126489;27;20462;-56
2021/07/28 07:21:47;;;;;;;9.40;7.30;;;24.40;1.00;;;;;;5128362;27;20438;-57
2021/07/28 07:24:13;;;;;;;7.73;7.10;;;24.50;1.00;;;;;;5129236;27;20197;-56
2021/07/28 07:26:38;;;;;;;8.63;7.10;;;24.50;1.00;;;;;;5139625;27;20181;-56
2021/07/28 07:29:04;;;;;;;8.00;7.20;;;24.40;1.00;;;;;;5130717;27;20184;-56
2021/07/28 07:31:29;;;;;;;7.80;7.10;;;24.30;1.00;;;;;;5109085;27;20218;-56
2021/07/28 07:33:55;;;;;;;8.23;7.53;;;24.30;1.00;;;;;;5131185;27;20172;-56
2021/07/28 07:36:23;;;;;;;7.80;7.10;;;24.20;1.00;;;;;;5109967;27;20227;-57
2021/07/28 07:38:48;;;;;;;7.37;6.67;;;23.90;1.00;;;;;;5112038;27;20677;-56
2021/07/28 07:41:14;;;;;;;8.77;7.97;;;24.20;1.00;;;;;;5129967;27;20466;-56
2021/07/28 07:43:41;;;;;;;7.67;7.03;;;24.20;1.00;;;;;;5128561;27;20265;-57
2021/07/28 07:46:06;;;;;;;11.13;7.37;;;24.20;1.00;;;;;;5131105;27;20441;-56
2021/07/28 07:48:32;;;;;;;8.47;7.57;;;24.10;1.00;;;;;;5129399;27;20427;-56
2021/07/28 07:50:57;;;;;;;9.57;8.63;;;24.00;1.00;;;;;;5127574;27;20193;-56
2021/07/28 07:53:23;;;;;;;8.30;7.60;;;23.90;1.00;;;;;;5127259;27;20685;-57
2021/07/28 07:55:49;;;;;;;8.90;8.10;;;23.90;1.00;;;;;;5129669;27;20180;-55
2021/07/28 07:58:14;;;;;;;8.60;7.80;;;24.00;1.00;;;;;;5130084;27;20190;-56
2021/07/28 08:00:40;;;;;;;9.37;8.17;;;24.10;1.00;;;;;;5110691;27;20182;-56
2021/07/28 08:03:05;;;;;;;8.43;7.53;;;23.90;1.00;;;;;;5127222;27;20588;-54
2021/07/28 08:05:32;;;;;;;8.63;7.83;;;23.90;1.00;;;;;;5127119;27;20203;-57
2021/07/28 08:07:58;;;;;;;9.00;8.10;;;24.00;1.00;;;;;;5129354;27;20635;-55
2021/07/28 08:10:23;;;;;;;9.13;8.27;;;24.10;1.00;;;;;;5128083;27;20435;-56
2021/07/28 08:12:49;;;;;;;8.50;7.70;;;24.40;1.00;;;;;;5129009;27;20206;-55
2021/07/28 08:15:15;;;;;;;7.63;7.00;;;24.30;1.00;;;;;;5130845;27;20192;-57
2021/07/28 08:17:40;;;;;;;9.10;8.20;;;24.40;1.00;;;;;;5127623;27;20208;-57
2021/07/28 08:20:07;;;;;;;9.40;8.10;;;24.50;1.00;;;;;;5105557;27;20169;-57
2021/07/28 08:22:32;;;;;;;9.27;8.37;;;24.30;1.00;;;;;;5126620;27;20177;-57
2021/07/28 08:24:58;;;;;;;8.00;7.27;;;24.40;1.00;;;;;;5130526;27;20514;-57
2021/07/28 08:27:25;;;;;;;8.97;8.13;;;24.50;1.00;;;;;;5130253;27;20185;-57
2021/07/28 08:29:52;;;;;;;9.43;8.53;;;24.70;1.00;;;;;;5108837;27;20181;-56
2021/07/28 08:32:18;;;;;;;8.00;6.90;;;24.40;1.00;;;;;;5132083;27;20427;-57
2021/07/28 08:34:44;;;;;;;9.37;8.47;;;;;;;;;;5131866;27;20430;-56
2021/07/28 08:37:09;;;;;;;8.73;7.93;;;24.70;1.00;;;;;;5113863;27;20587;-56
2021/07/28 08:39:35;;;;;;;8.00;7.30;;;24.90;1.00;;;;;;5115390;27;20541;-55
2021/07/28 08:42:04;;;;;;;8.47;7.60;;;25.20;1.00;;;;;;5133745;27;20257;-58
2021/07/28 08:44:37;;;;;;;8.27;7.50;;;25.20;1.00;;;;;;5133249;27;20273;-57
2021/07/28 08:47:04;;;;;;;9.37;8.47;;;25.20;1.00;;;;;;5133004;27;20442;-58
2021/07/28 08:49:29;;;;;;;9.80;8.80;;;24.90;1.00;;;;;;5134351;27;20426;-57
2021/07/28 08:51:55;;;;;;;7.77;7.07;;;24.70;1.00;;;;;;5133614;27;20446;-57
2021/07/28 08:54:21;;;;;;;8.40;7.70;;;24.70;1.00;;;;;;5132275;27;20181;-57
2021/07/28 08:56:47;;;;;;;9.27;7.33;;;24.80;1.00;;;;;;5130272;27;20196;-57
2021/07/28 08:59:32;;;;;;;8.20;7.50;;;24.60;1.00;;;;;;5133659;27;20494;-57
2021/07/28 09:01:59;;;;;;;8.80;7.90;;;24.90;1.00;;;;;;5133900;27;20449;-56
2021/07/28 09:04:25;;;;;;;8.67;7.87;;;25.40;1.00;;;;;;5133663;27;20433;-59
2021/07/28 09:06:52;;;;;;;8.10;7.40;;;25.20;1.00;;;;;;5134020;27;20522;-57
2021/07/28 09:09:17;;;;;;;6.57;6.00;;;25.00;1.00;;;;;;5133411;27;20492;-56
2021/07/28 09:11:54;;;;;;;6.53;6.03;;;25.00;1.00;;;;;;5133197;27;20525;-58
2021/07/28 09:14:23;;;;;;;6.30;5.80;;;25.10;1.00;;;;;;5131844;27;20180;-56
2021/07/28 09:16:49;;;;;;;7.23;6.50;;;25.20;1.00;;;;;;5133774;27;20454;-57
2021/07/28 09:19:42;;;;;;;6.10;5.50;;;25.20;1.00;;;;;;5132793;27;20513;-57
2021/07/28 09:22:09;;;;;;;8.73;7.20;;;25.30;1.00;;;;;;5114685;27;20441;-57
2021/07/28 09:24:35;;;;;;;7.03;6.43;;;25.50;1.00;;;;;;5133300;27;20470;-57
2021/07/28 09:27:00;;;;;;;6.30;5.70;;;26.00;1.00;;;;;;5133318;27;20412;-60
2021/07/28 09:29:27;;;;;;;6.27;5.73;;;26.40;1.00;;;;;;5131479;27;20297;-58
2021/07/28 09:32:08;;;;;;;7.77;6.33;;;26.50;1.00;;;;;;5133420;27;21032;-56
2021/07/28 09:34:36;;;;;;;6.47;5.87;;;26.70;1.00;;;;;;5133188;27;20487;-58
2021/07/28 09:37:15;;;;;;;6.30;5.80;;;26.80;1.00;;;;;;5133358;27;20784;-59
2021/07/28 09:39:45;;;;;;;6.27;5.67;;;27.20;1.00;;;;;;5133257;27;20493;-59
2021/07/28 09:42:13;;;;;;;8.27;5.87;;;27.70;1.00;;;;;;5132054;27;20459;-59
2021/07/28 09:44:41;;;;;;;5.67;5.00;;;28.20;1.00;;;;;;5130051;27;20425;-58
2021/07/28 09:47:08;;;;;;;6.23;5.67;;;28.40;1.00;;;;;;5129590;27;20458;-60
2021/07/28 09:49:35;;;;;;;6.50;5.93;;;27.90;1.00;;;;;;5132879;27;20437;-59
2021/07/28 09:52:25;;;;;;;6.80;5.73;;;27.90;1.00;;;;;;5133116;27;20438;-58
2021/07/28 09:54:53;;;;;;;5.80;5.00;;;28.20;1.00;;;;;;5132914;27;20496;-57
2021/07/28 09:57:21;;;;;;;6.20;5.70;;;28.20;1.00;;;;;;5132626;27;20408;-57
2021/07/28 10:00:06;;;;;;;5.97;5.47;;;28.10;1.00;;;;;;5132677;27;20526;-59
2021/07/28 10:02:35;;;;;;;5.53;5.03;;;27.30;1.00;;;;;;5132404;27;21511;-58
2021/07/28 10:05:03;;;;;;;6.20;5.60;;;27.10;1.00;;;;;;5132719;27;20443;-59
2021/07/28 10:07:30;;;;;;;5.67;5.20;;;27.10;1.00;;;;;;5132283;27;20834;-58
2021/07/28 10:10:00;;;;;;;6.20;5.63;;;27.20;1.00;;;;;;5132647;27;20435;-58
2021/07/28 10:12:27;;;;;;;5.87;5.23;;;27.50;1.00;;;;;;5126949;27;20409;-58
2021/07/28 10:14:54;;;;;;;6.30;5.80;;;28.20;1.00;;;;;;5113635;27;20504;-59
2021/07/28 10:17:20;;;;;;;6.10;5.50;;;28.30;1.00;;;;;;5132579;27;20447;-57
2021/07/28 10:19:49;;;;;;;5.60;5.00;;;28.60;1.00;;;;;;5132274;27;20500;-58
2021/07/28 10:22:15;;;;;;;7.33;5.57;;;29.10;1.00;;;;;;5113551;27;20424;-58
2021/07/28 10:24:44;;;;;;;4.90;4.50;;;28.80;1.00;;;;;;5131752;27;20444;-57
2021/07/28 10:27:09;;;;;;;6.90;4.77;;;28.50;1.00;;;;;;5131979;27;20417;-59
2021/07/28 10:29:35;;;;;;;5.57;5.07;;;28.80;1.00;;;;;;5131824;27;20416;-57
2021/07/28 10:32:01;;;;;;;5.23;4.60;;;29.10;1.00;;;;;;5131719;27;20181;-59
2021/07/28 10:34:31;;;;;;;5.50;5.10;;;28.50;1.00;;;;;;5130015;27;20801;-59
2021/07/28 10:37:01;;;;;;;5.90;4.77;;;28.30;1.00;;;;;;5128265;27;20227;-59
2021/07/28 10:39:50;;;;;;;5.00;4.37;;;28.50;1.00;;;;;;5131507;27;20505;-57
2021/07/28 10:42:30;;;;;;;4.77;4.37;;;28.80;1.00;;;;;;5130305;27;20461;-59
2021/07/28 10:45:04;;;;;;;4.67;4.27;;;28.70;1.00;;;;;;5131784;27;20561;-58
2021/07/28 10:47:34;;;;;;;5.27;4.70;;;28.70;1.00;;;;;;5131815;27;20401;-56
2021/07/28 10:50:00;;;;;;;4.57;4.17;;;28.90;1.00;;;;;;5131806;27;20431;-57
2021/07/28 10:52:41;;;;;;;5.67;4.53;;;28.80;1.00;;;;;;5130928;27;20473;-57
2021/07/28 10:55:15;;;;;;;4.90;4.50;;;28.50;1.00;;;;;;5128494;27;20443;-57
2021/07/28 10:57:46;;;;;;;5.20;4.50;;;28.60;1.00;;;;;;5131417;27;20496;-59
2021/07/28 11:00:33;;;;;;;6.00;4.23;;;28.80;1.00;;;;;;5125342;27;20825;-57
2021/07/28 11:02:58;;;;;;;5.13;4.63;;;28.80;1.00;;;;;;5125117;27;20509;-58
2021/07/28 11:05:25;;;;;;;4.73;4.33;;;28.90;1.00;;;;;;5131596;27;20409;-59
2021/07/28 11:08:05;;;;;;;4.93;4.53;;;28.70;1.00;;;;;;5128845;27;20650;-57
2021/07/28 11:10:35;;;;;;;4.50;4.10;;;28.60;1.00;;;;;;5131596;27;20412;-57
2021/07/28 11:13:06;;;;;;;5.00;4.50;;;28.20;1.00;;;;;;5131041;27;20795;-58
2021/07/28 11:15:32;;;;;;;4.87;4.47;;;27.90;1.00;;;;;;5131834;27;20522;-58
2021/07/28 11:17:58;;;;;;;5.97;5.00;;;27.70;1.00;;;;;;5131396;27;20431;-59
2021/07/28 11:20:27;;;;;;;5.37;4.97;;;27.90;1.00;;;;;;5131578;27;20449;-58
2021/07/28 11:22:53;;;;;;;5.90;5.40;;;28.10;1.00;;;;;;5131205;27;20538;-58
2021/07/28 11:25:18;;;;;;;5.47;4.90;;;28.30;1.00;;;;;;5124407;27;20406;-58
2021/07/28 11:28:03;;;;;;;5.67;5.20;;;28.50;1.00;;;;;;5112057;27;20344;-58
2021/07/28 11:30:29;;;;;;;7.23;5.30;;;28.40;1.00;;;;;;5129836;27;20638;-58
2021/07/28 11:32:55;;;;;;;6.23;4.57;;;28.50;1.00;;;;;;5127839;27;20451;-59
2021/07/28 11:35:21;;;;;;;6.20;4.77;;;28.60;1.00;;;;;;5131019;27;20646;-59
2021/07/28 11:37:46;;;;;;;5.57;4.90;;;28.70;1.00;;;;;;5111898;27;20480;-59
2021/07/28 11:40:12;;;;;;;6.00;4.97;;;28.80;1.00;;;;;;5130208;27;20192;-56
2021/07/28 11:42:38;;;;;;;4.70;4.30;;;28.90;1.00;;;;;;5129986;27;20177;-58
2021/07/28 11:45:04;;;;;;;8.33;4.80;;;29.20;1.00;;;;;;5130204;27;20421;-57
2021/07/28 11:47:29;;;;;;;6.27;4.80;;;29.40;1.00;;;;;;5129686;27;20200;-57
2021/07/28 11:50:05;;;;;;;7.60;4.60;;;29.70;1.00;;;;;;5129158;27;20422;-56
2021/07/28 11:52:34;;;;;;;4.87;4.57;;;29.60;1.00;;;;;;5127241;27;20231;-57
2021/07/28 11:54:59;;;;;;;4.50;4.10;;;29.10;1.00;;;;;;5129310;27;20442;-58
2021/07/28 11:57:25;;;;;;;4.90;4.50;;;28.50;1.00;;;;;;5127013;27;20498;-57
2021/07/28 11:59:50;;;;;;;6.93;5.10;;;28.00;1.00;;;;;;5127301;27;20182;-57
2021/07/28 12:02:20;;;;;;;4.93;4.43;;;27.80;1.00;;;;;;5130362;27;20677;-57
2021/07/28 12:04:48;;;;;;;5.23;4.70;;;27.80;1.00;;;;;;5125758;27;20293;-57
2021/07/28 12:07:16;;;;;;;4.73;4.23;;;28.20;1.00;;;;;;5131151;27;20424;-56
2021/07/28 12:09:55;;;;;;;5.27;4.77;;;28.50;1.00;;;;;;5111480;27;20397;-56
2021/07/28 12:12:22;;;;;;;4.37;4.07;;;28.90;1.00;;;;;;5128886;27;20446;-57
2021/07/28 12:14:49;;;;;;;4.80;4.30;;;29.40;1.00;;;;;;5130280;27;20935;-57
2021/07/28 12:17:18;;;;;;;4.73;4.30;;;29.80;1.00;;;;;;5132909;27;20519;-57
2021/07/28 12:20:02;;;;;;;4.97;4.57;;;29.40;1.00;;;;;;5134649;27;20522;-56
2021/07/28 12:22:29;;;;;;;4.73;4.33;;;28.80;1.00;;;;;;5132334;27;20923;-58
2021/07/28 12:25:24;;;;;;;5.20;4.70;;;28.50;1.00;;;;;;5126396;27;20470;-58
2021/07/28 12:27:54;;;;;;;7.93;4.70;;;28.30;1.00;;;;;;5131789;27;20954;-56
2021/07/28 12:30:21;;;;;;;6.30;4.33;;;28.20;1.00;;;;;;5130779;27;20414;-57
2021/07/28 12:32:49;;;;;;;5.20;4.57;;;28.30;1.00;;;;;;5134308;27;20426;-55
2021/07/28 12:35:15;;;;;;;4.50;4.20;;;31.60;1.00;;;;;;5133350;27;20731;-57
2021/07/28 12:37:41;;;;;;;4.70;4.20;;;28.20;1.00;;;;;;5115239;27;20419;-57
2021/07/28 12:40:08;;;;;;;4.20;3.90;;;28.20;1.00;;;;;;5127209;27;20239;-57
2021/07/28 12:42:34;;;;;;;4.37;4.07;;;28.10;1.00;;;;;;5132817;27;20423;-57
2021/07/28 12:45:00;;;;;;;5.30;3.93;;;28.10;1.00;;;;;;5126446;27;20782;-56
2021/07/28 12:47:26;;;;;;;4.60;3.90;;;27.90;1.00;;;;;;5129040;27;20181;-57
2021/07/28 12:49:52;;;;;;;4.90;4.50;;;27.80;1.00;;;;;;5126158;27;20446;-57
2021/07/28 12:52:18;;;;;;;5.10;4.70;;;27.70;1.00;;;;;;5132290;27;20224;-58
2021/07/28 12:54:43;;;;;;;4.40;4.00;;;27.60;1.00;;;;;;5129885;27;20452;-56
2021/07/28 12:57:09;;;;;;;5.23;4.77;;;27.80;1.00;;;;;;5130591;27;20185;-57
2021/07/28 12:59:35;;;;;;;5.80;4.60;;;28.00;1.00;;;;;;5132203;27;20295;-58